createdAt,value
2023-02-08T00:00:00.000Z,98007
2023-02-08T00:05:00.000Z,98004
2023-02-08T00:10:00.000Z,98003
2023-02-08T00:15:00.000Z,97996
2023-02-08T00:20:00.000Z,97993
2023-02-08T00:25:00.000Z,97988
2023-02-08T00:30:00.000Z,97990
2023-02-08T00:35:00.000Z,97980
2023-02-08T00:40:00.000Z,97974
2023-02-08T00:45:00.000Z,97974
2023-02-08T00:50:00.000Z,97984
2023-02-08T00:55:00.000Z,97982
2023-02-08T01:00:00.000Z,97974
2023-02-08T01:05:00.000Z,97963
2023-02-08T01:10:00.000Z,97959
2023-02-08T01:15:00.000Z,97969
2023-02-08T01:20:00.000Z,97959
2023-02-08T01:25:00.000Z,97956
2023-02-08T01:30:00.000Z,97959
2023-02-08T01:35:00.000Z,97960
2023-02-08T01:40:00.000Z,97940
2023-02-08T01:45:00.000Z,97953
2023-02-08T01:50:00.000Z,97950
2023-02-08T01:55:00.000Z,97942
2023-02-08T02:00:00.000Z,97938
2023-02-08T02:05:00.000Z,97938
2023-02-08T02:10:00.000Z,97934
2023-02-08T02:15:00.000Z,97931
2023-02-08T02:20:00.000Z,97936
2023-02-08T02:25:00.000Z,97941
2023-02-08T02:30:00.000Z,97936
2023-02-08T02:35:00.000Z,97933
2023-02-08T02:40:00.000Z,97929
2023-02-08T02:45:00.000Z,97930
2023-02-08T02:50:00.000Z,97923
2023-02-08T02:55:00.000Z,97919
2023-02-08T03:00:00.000Z,97916
2023-02-08T03:05:00.000Z,97917
2023-02-08T03:10:00.000Z,97905
2023-02-08T03:15:00.000Z,97907
2023-02-08T03:20:00.000Z,97917
2023-02-08T03:25:00.000Z,97911
2023-02-08T03:30:00.000Z,97917
2023-02-08T03:35:00.000Z,97900
2023-02-08T03:40:00.000Z,97916
2023-02-08T03:45:00.000Z,97911
2023-02-08T03:50:00.000Z,97918
2023-02-08T03:55:00.000Z,97916
2023-02-08T04:00:00.000Z,97900
2023-02-08T04:05:00.000Z,97912
2023-02-08T04:10:00.000Z,97907
2023-02-08T04:15:00.000Z,97906
2023-02-08T04:20:00.000Z,97912
2023-02-08T04:25:00.000Z,97910
2023-02-08T04:30:00.000Z,97906
2023-02-08T04:35:00.000Z,97906
2023-02-08T04:40:00.000Z,97897
2023-02-08T04:45:00.000Z,97901
2023-02-08T04:50:00.000Z,97898
2023-02-08T04:55:00.000Z,97900
2023-02-08T05:00:00.000Z,97891
2023-02-08T05:05:00.000Z,97889
2023-02-08T05:10:00.000Z,97885
2023-02-08T05:15:00.000Z,97887
2023-02-08T05:20:00.000Z,97892
2023-02-08T05:25:00.000Z,97895
2023-02-08T05:30:00.000Z,97900
2023-02-08T05:35:00.000Z,97900
2023-02-08T05:40:00.000Z,97913
2023-02-08T05:45:00.000Z,97900
2023-02-08T05:50:00.000Z,97915
2023-02-08T05:55:00.000Z,97927
2023-02-08T06:00:00.000Z,97918
2023-02-08T06:05:00.000Z,97932
2023-02-08T06:10:00.000Z,97931
2023-02-08T06:15:00.000Z,97936
2023-02-08T06:20:00.000Z,97953
2023-02-08T06:25:00.000Z,97942
2023-02-08T06:30:00.000Z,97948
2023-02-08T06:35:00.000Z,97949
2023-02-08T06:40:00.000Z,97952
2023-02-08T06:45:00.000Z,97957
2023-02-08T06:50:00.000Z,97957
2023-02-08T06:55:00.000Z,97961
2023-02-08T07:00:00.000Z,97958
2023-02-08T07:05:00.000Z,97964
2023-02-08T07:10:00.000Z,97960
2023-02-08T07:15:00.000Z,97960
2023-02-08T07:20:00.000Z,97961
2023-02-08T07:25:00.000Z,97965
2023-02-08T07:30:00.000Z,97966
2023-02-08T07:35:00.000Z,97957
2023-02-08T07:40:00.000Z,97969
2023-02-08T07:45:00.000Z,97957
2023-02-08T07:50:00.000Z,97977
2023-02-08T07:55:00.000Z,97979
2023-02-08T08:00:00.000Z,97971
2023-02-08T08:05:00.000Z,97979
2023-02-08T08:10:00.000Z,97982
2023-02-08T08:15:00.000Z,97979
2023-02-08T08:20:00.000Z,97981
2023-02-08T08:25:00.000Z,97985
2023-02-08T08:30:00.000Z,97991
2023-02-08T08:35:00.000Z,97991
2023-02-08T08:40:00.000Z,97997
2023-02-08T08:45:01.000Z,97991
2023-02-08T08:50:01.000Z,97988
2023-02-08T08:55:01.000Z,97994
2023-02-08T09:00:01.000Z,97987
2023-02-08T09:05:01.000Z,97987
2023-02-08T09:10:01.000Z,97993
2023-02-08T09:15:01.000Z,97994
2023-02-08T09:20:01.000Z,97996
2023-02-08T09:25:01.000Z,97993
2023-02-08T09:30:01.000Z,97997
2023-02-08T09:35:01.000Z,97994
2023-02-08T09:40:01.000Z,97993
2023-02-08T09:45:01.000Z,97993
2023-02-08T09:50:01.000Z,97994
2023-02-08T09:55:01.000Z,97981
2023-02-08T10:00:01.000Z,97991
2023-02-08T10:05:01.000Z,97988
2023-02-08T10:10:01.000Z,97992
2023-02-08T10:15:01.000Z,97986
2023-02-08T10:20:01.000Z,97986
2023-02-08T10:25:01.000Z,97992
2023-02-08T10:30:01.000Z,97984
2023-02-08T10:35:01.000Z,97987
2023-02-08T10:40:01.000Z,97984
2023-02-08T10:45:01.000Z,97975
2023-02-08T10:50:01.000Z,97977
2023-02-08T10:55:01.000Z,97966
2023-02-08T11:00:01.000Z,97972
2023-02-08T11:05:01.000Z,97962
2023-02-08T11:10:01.000Z,97968
2023-02-08T11:15:01.000Z,97964
2023-02-08T11:20:01.000Z,97981
2023-02-08T11:25:01.000Z,97959
2023-02-08T11:30:01.000Z,97962
2023-02-08T11:35:01.000Z,97962
2023-02-08T11:40:01.000Z,97962
2023-02-08T11:45:01.000Z,97960
2023-02-08T11:50:01.000Z,97958
2023-02-08T11:55:01.000Z,97953
2023-02-08T12:00:01.000Z,97945
2023-02-08T12:05:01.000Z,97941
2023-02-08T12:10:01.000Z,97925
2023-02-08T12:15:01.000Z,97930
2023-02-08T12:20:01.000Z,97935
2023-02-08T12:25:01.000Z,97934
2023-02-08T12:30:01.000Z,97934
2023-02-08T12:35:01.000Z,97914
2023-02-08T12:40:01.000Z,97917
2023-02-08T12:45:01.000Z,97913
2023-02-08T12:50:01.000Z,97905
2023-02-08T12:55:01.000Z,97897
2023-02-08T13:00:01.000Z,97890
2023-02-08T13:05:01.000Z,97884
2023-02-08T13:10:01.000Z,97880
2023-02-08T13:15:01.000Z,97878
2023-02-08T13:20:01.000Z,97869
2023-02-08T13:25:01.000Z,97874
2023-02-08T13:30:01.000Z,97861
2023-02-08T13:35:01.000Z,97869
2023-02-08T13:40:01.000Z,97862
2023-02-08T13:45:01.000Z,97865
2023-02-08T13:50:01.000Z,97876
2023-02-08T13:55:01.000Z,97873
2023-02-08T14:00:01.000Z,97861
2023-02-08T14:05:01.000Z,97875
2023-02-08T14:10:01.000Z,97881
2023-02-08T14:15:01.000Z,97877
2023-02-08T14:20:01.000Z,97878
2023-02-08T14:25:01.000Z,97881
2023-02-08T14:30:01.000Z,97883
2023-02-08T14:35:01.000Z,97867
2023-02-08T14:40:01.000Z,97887
2023-02-08T14:45:01.000Z,97886
2023-02-08T14:50:01.000Z,97879
2023-02-08T14:55:01.000Z,97887
2023-02-08T15:00:01.000Z,97892
2023-02-08T15:05:01.000Z,97889
2023-02-08T15:10:01.000Z,97904
2023-02-08T15:15:01.000Z,97892
2023-02-08T15:20:01.000Z,97887
2023-02-08T15:25:01.000Z,97880
2023-02-08T15:30:01.000Z,97882
2023-02-08T15:35:01.000Z,97888
2023-02-08T15:40:01.000Z,97888
2023-02-08T15:45:01.000Z,97879
2023-02-08T15:50:01.000Z,97874
2023-02-08T15:55:01.000Z,97882
2023-02-08T16:00:01.000Z,97874
2023-02-08T16:05:01.000Z,97885
2023-02-08T16:10:01.000Z,97887
2023-02-08T16:15:01.000Z,97898
2023-02-08T16:20:01.000Z,97895
2023-02-08T16:25:01.000Z,97885
2023-02-08T16:30:01.000Z,97886
2023-02-08T16:35:01.000Z,97888
2023-02-08T16:40:01.000Z,97893
2023-02-08T16:45:01.000Z,97887
2023-02-08T16:50:01.000Z,97888
2023-02-08T16:55:01.000Z,97884
2023-02-08T17:00:01.000Z,97886
2023-02-08T17:05:01.000Z,97896
2023-02-08T17:10:01.000Z,97905
2023-02-08T17:15:01.000Z,97889
2023-02-08T17:20:01.000Z,97893
2023-02-08T17:25:01.000Z,97880
2023-02-08T17:30:01.000Z,97889
2023-02-08T17:35:01.000Z,97887
2023-02-08T17:40:01.000Z,97892
2023-02-08T17:45:01.000Z,97895
2023-02-08T17:50:01.000Z,97885
2023-02-08T17:55:01.000Z,97890
2023-02-08T18:00:01.000Z,97893
2023-02-08T18:05:01.000Z,97889
2023-02-08T18:10:01.000Z,97884
2023-02-08T18:15:01.000Z,97879
2023-02-08T18:20:01.000Z,97884
2023-02-08T18:25:01.000Z,97891
2023-02-08T18:30:01.000Z,97884
2023-02-08T18:35:01.000Z,97880
2023-02-08T18:40:01.000Z,97877
2023-02-08T18:45:01.000Z,97874
2023-02-08T18:50:01.000Z,97870
2023-02-08T18:55:01.000Z,97870
2023-02-08T19:00:01.000Z,97880
2023-02-08T19:05:01.000Z,97873
2023-02-08T19:10:01.000Z,97880
2023-02-08T19:15:01.000Z,97864
2023-02-08T19:20:01.000Z,97870
2023-02-08T19:25:01.000Z,97859
2023-02-08T19:30:01.000Z,97864
2023-02-08T19:35:01.000Z,97866
2023-02-08T19:40:01.000Z,97864
2023-02-08T19:45:01.000Z,97858
2023-02-08T19:50:01.000Z,97855
2023-02-08T19:55:01.000Z,97845
2023-02-08T20:00:01.000Z,97846
2023-02-08T20:05:01.000Z,97841
2023-02-08T20:10:01.000Z,97838
2023-02-08T20:15:01.000Z,97842
2023-02-08T20:20:01.000Z,97842
2023-02-08T20:25:01.000Z,97848
2023-02-08T20:30:01.000Z,97860
2023-02-08T20:35:01.000Z,97855
2023-02-08T20:40:01.000Z,97873
2023-02-08T20:45:01.000Z,97873
2023-02-08T20:50:01.000Z,97882
2023-02-08T20:55:01.000Z,97878
2023-02-08T21:00:01.000Z,97885
2023-02-08T21:05:01.000Z,97888
2023-02-08T21:10:01.000Z,97890
2023-02-08T21:15:01.000Z,97905
2023-02-08T21:20:01.000Z,97898
2023-02-08T21:25:01.000Z,97901
2023-02-08T21:30:01.000Z,97896
2023-02-08T21:35:01.000Z,97903
2023-02-08T21:40:01.000Z,97904
2023-02-08T21:45:01.000Z,97906
2023-02-08T21:50:01.000Z,97904
2023-02-08T21:55:01.000Z,97900
2023-02-08T22:00:01.000Z,97899
2023-02-08T22:05:01.000Z,97903
2023-02-08T22:10:01.000Z,97904
2023-02-08T22:15:01.000Z,97913
2023-02-08T22:20:01.000Z,97912
2023-02-08T22:25:01.000Z,97905
2023-02-08T22:30:01.000Z,97906
2023-02-08T22:35:01.000Z,97905
2023-02-08T22:40:01.000Z,97909
2023-02-08T22:45:01.000Z,97901
2023-02-08T22:50:01.000Z,97908
2023-02-08T22:55:01.000Z,97911
2023-02-08T23:00:01.000Z,97910
2023-02-08T23:05:01.000Z,97913
2023-02-08T23:10:01.000Z,97919
2023-02-08T23:15:01.000Z,97921
2023-02-08T23:20:01.000Z,97918
2023-02-08T23:25:01.000Z,97926
2023-02-08T23:30:01.000Z,97922
2023-02-08T23:35:01.000Z,97932
2023-02-08T23:40:01.000Z,97928
2023-02-08T23:45:01.000Z,97936
2023-02-08T23:50:01.000Z,97928
2023-02-08T23:55:01.000Z,97934
